Time;durP1;ratioP1;P1;durP2;ratioP2;P2;SDS_P1;SDS_P2;PMS_P1;PMS_P2;Temp;Humidity;BMP_temperature;BMP_pressure;BME280_temperature;BME280_humidity;BME280_pressure;Samples;Min_cycle;Max_cycle;Signal;HPM_P1;HPM_P2
2022/11/12 00:00:31;;;;;;;61.92;27.38;;;7.50;99.90;;;;;;5092972;28;20284;-52
2022/11/12 00:02:57;;;;;;;22.23;11.25;;;7.50;99.90;;;;;;5093071;28;20210;-51
2022/11/12 00:05:23;;;;;;;15.50;9.63;;;7.50;99.90;;;;;;5092766;28;20625;-51
2022/11/12 00:07:49;;;;;;;16.95;9.20;;;7.50;99.90;;;;;;5093022;28;20174;-52
2022/11/12 00:10:15;;;;;;;18.30;9.43;;;7.50;99.90;;;;;;5092981;28;20211;-51
2022/11/12 00:12:40;;;;;;;37.28;17.02;;;7.50;99.90;;;;;;5093183;28;20172;-51
2022/11/12 00:15:07;;;;;;;26.55;13.68;;;7.50;99.90;;;;;;5093218;28;20177;-51
2022/11/12 00:17:32;;;;;;;24.70;11.82;;;7.50;99.90;;;;;;5093110;28;20166;-52
2022/11/12 00:19:58;;;;;;;33.78;15.25;;;7.50;99.90;;;;;;5092877;28;20174;-53
2022/11/12 00:22:23;;;;;;;36.25;16.42;;;7.40;99.90;;;;;;5092786;28;20209;-51
2022/11/12 00:24:49;;;;;;;40.35;17.20;;;7.40;99.90;;;;;;5092829;28;20161;-52
2022/11/12 00:27:15;;;;;;;24.50;12.68;;;7.40;99.90;;;;;;5092973;28;20192;-51
2022/11/12 00:29:40;;;;;;;166.48;55.67;;;7.40;99.90;;;;;;5093120;28;20157;-51
2022/11/12 00:32:07;;;;;;;42.53;16.67;;;7.40;99.90;;;;;;5092669;28;20177;-51
2022/11/12 00:34:33;;;;;;;19.05;9.98;;;7.40;99.90;;;;;;5092543;28;20161;-51
2022/11/12 00:36:59;;;;;;;35.28;16.05;;;7.30;99.90;;;;;;5074290;28;20218;-51
2022/11/12 00:39:25;;;;;;;25.15;13.35;;;7.30;99.90;;;;;;5092346;28;20668;-51
2022/11/12 00:41:50;;;;;;;32.40;16.10;;;7.30;99.90;;;;;;5092479;28;20232;-51
2022/11/12 00:44:16;;;;;;;23.08;12.30;;;7.30;99.90;;;;;;5092448;28;20236;-50
2022/11/12 00:46:42;;;;;;;158.63;69.30;;;7.30;99.90;;;;;;5092371;28;20187;-51
2022/11/12 00:49:07;;;;;;;17.70;10.65;;;7.40;99.90;;;;;;5092715;28;20183;-51
2022/11/12 00:51:34;;;;;;;10.50;7.53;;;7.30;99.90;;;;;;5092271;28;20177;-51
2022/11/12 00:54:00;;;;;;;12.88;7.47;;;7.20;99.90;;;;;;5092185;28;20212;-51
2022/11/12 00:56:25;;;;;;;12.30;7.13;;;7.20;99.90;;;;;;5092203;28;20161;-51
2022/11/12 00:58:51;;;;;;;19.08;9.77;;;7.20;99.90;;;;;;5092031;28;20212;-51
2022/11/12 01:01:17;;;;;;;16.80;9.68;;;7.20;99.90;;;;;;5091737;28;20201;-51
2022/11/12 01:03:43;;;;;;;14.30;8.20;;;7.10;99.90;;;;;;5091970;28;20250;-51
2022/11/12 01:06:12;;;;;;;32.75;14.30;;;7.10;99.90;;;;;;5073785;28;20206;-51
2022/11/12 01:08:38;;;;;;;17.58;9.35;;;7.10;99.90;;;;;;5092532;28;20165;-51
2022/11/12 01:11:15;;;;;;;10.85;7.82;;;7.10;99.90;;;;;;5092131;28;20161;-51
2022/11/12 01:13:44;;;;;;;19.42;9.60;;;7.10;99.90;;;;;;5092005;28;20192;-51
2022/11/12 01:16:15;;;;;;;18.73;10.73;;;7.20;99.90;;;;;;5091870;28;20157;-51
2022/11/12 01:18:42;;;;;;;16.90;9.77;;;7.10;99.90;;;;;;5092001;28;20523;-52
2022/11/12 01:21:08;;;;;;;16.70;12.65;;;7.10;99.90;;;;;;5074021;28;20207;-50
2022/11/12 01:23:35;;;;;;;19.10;10.55;;;7.20;99.90;;;;;;5092049;28;20255;-51
2022/11/12 01:26:06;;;;;;;14.38;8.93;;;7.20;99.90;;;;;;5091388;28;20165;-51
2022/11/12 01:28:31;;;;;;;17.20;9.70;;;7.30;99.90;;;;;;5091781;28;20165;-52
2022/11/12 01:30:57;;;;;;;18.45;9.57;;;7.30;99.90;;;;;;5091829;28;20252;-51
2022/11/12 01:33:22;;;;;;;13.30;9.85;;;7.30;99.90;;;;;;5091570;28;20180;-51
2022/11/12 01:35:48;;;;;;;15.25;9.40;;;7.30;99.90;;;;;;5091527;28;20169;-51
2022/11/12 01:38:13;;;;;;;15.00;8.82;;;7.30;99.90;;;;;;5091557;28;20248;-51
2022/11/12 01:40:39;;;;;;;14.25;9.13;;;7.30;99.90;;;;;;5091720;28;20199;-51
2022/11/12 01:43:12;;;;;;;11.75;8.10;;;7.20;99.90;;;;;;5091663;28;20637;-51
2022/11/12 01:45:42;;;;;;;14.50;8.50;;;7.30;99.90;;;;;;5092101;28;20192;-52
2022/11/12 01:48:33;;;;;;;17.13;8.65;;;7.30;99.90;;;;;;5091614;28;20629;-53
2022/11/12 01:51:02;;;;;;;11.82;8.52;;;7.30;99.90;;;;;;5090971;28;20192;-54
2022/11/12 01:53:32;;;;;;;14.82;8.63;;;7.30;99.90;;;;;;5091543;28;20238;-54
2022/11/12 01:55:59;;;;;;;23.05;9.38;;;7.20;99.90;;;;;;5073309;28;20173;-53
2022/11/12 01:58:28;;;;;;;11.50;8.30;;;7.20;99.90;;;;;;5091668;28;20499;-52
2022/11/12 02:00:54;;;;;;;14.63;8.60;;;7.20;99.90;;;;;;5091430;28;20173;-53
2022/11/12 02:03:22;;;;;;;12.18;8.07;;;7.30;99.90;;;;;;5091560;28;20173;-53
2022/11/12 02:05:53;;;;;;;11.82;8.55;;;7.30;99.90;;;;;;5091541;28;20161;-52
2022/11/12 02:08:21;;;;;;;13.30;7.90;;;7.30;99.90;;;;;;5090901;28;20161;-52
2022/11/12 02:10:46;;;;;;;14.13;7.75;;;7.20;99.90;;;;;;5091417;28;20256;-52
2022/11/12 02:15:56;;;;;;;10.32;8.07;;;7.20;99.90;;;;;;5091652;28;20180;-53
2022/11/12 02:18:22;;;;;;;11.95;8.00;;;7.20;99.90;;;;;;5091267;28;20672;-52
2022/11/12 02:20:54;;;;;;;13.05;7.95;;;7.20;99.90;;;;;;5091258;28;20252;-53
2022/11/12 02:23:20;;;;;;;10.98;7.32;;;7.20;99.90;;;;;;5091375;28;20165;-52
2022/11/12 02:25:45;;;;;;;10.90;8.02;;;7.10;99.90;;;;;;5091460;28;20165;-52
2022/11/12 02:28:11;;;;;;;17.13;7.70;;;7.10;99.90;;;;;;5091279;28;20577;-51
2022/11/12 02:30:39;;;;;;;12.63;7.93;;;7.10;99.90;;;;;;5091590;28;20162;-51
2022/11/12 02:33:04;;;;;;;12.63;8.57;;;7.20;99.90;;;;;;5091248;28;20240;-52
2022/11/12 02:35:30;;;;;;;12.43;7.82;;;7.10;99.90;;;;;;5073262;28;20737;-52
2022/11/12 02:37:56;;;;;;;10.85;8.18;;;7.10;99.90;;;;;;5093990;28;20173;-52
2022/11/12 02:40:22;;;;;;;12.32;8.32;;;7.10;99.90;;;;;;5094834;28;20501;-51
2022/11/12 02:42:48;;;;;;;15.95;8.77;;;7.00;99.90;;;;;;5094723;28;20201;-51
2022/11/12 02:45:14;;;;;;;13.27;8.07;;;7.10;99.90;;;;;;5094732;28;20534;-51
2022/11/12 02:47:40;;;;;;;14.43;8.38;;;7.00;99.90;;;;;;5095016;28;20640;-51
2022/11/12 02:50:06;;;;;;;13.90;8.60;;;7.10;99.90;;;;;;5095166;28;20165;-51
2022/11/12 02:52:33;;;;;;;12.90;8.52;;;7.00;99.90;;;;;;5094529;28;20530;-51
2022/11/12 02:54:59;;;;;;;12.15;7.88;;;7.10;99.90;;;;;;5094392;28;20633;-51
2022/11/12 02:57:25;;;;;;;15.38;9.80;;;7.00;99.90;;;;;;5094421;28;20179;-51
2022/11/12 02:59:51;;;;;;;14.23;9.07;;;7.00;99.90;;;;;;5094212;28;20213;-51
2022/11/12 03:02:16;;;;;;;11.02;8.32;;;7.00;99.90;;;;;;5094274;28;20220;-52
2022/11/12 03:04:42;;;;;;;16.33;8.98;;;7.00;99.90;;;;;;5094592;28;20254;-51
2022/11/12 03:07:07;;;;;;;14.85;9.15;;;6.90;99.90;;;;;;5094543;28;20609;-51
2022/11/12 03:09:33;;;;;;;12.25;8.80;;;7.00;99.90;;;;;;5094197;28;20646;-51
2022/11/12 03:11:59;;;;;;;16.25;8.90;;;6.90;99.90;;;;;;5094124;28;20170;-52
2022/11/12 03:14:25;;;;;;;15.45;9.20;;;7.00;99.90;;;;;;5094104;28;20577;-51
2022/11/12 03:16:50;;;;;;;12.95;7.88;;;7.00;99.90;;;;;;5094021;28;20169;-51
2022/11/12 03:19:16;;;;;;;13.23;9.63;;;7.00;99.90;;;;;;5094007;28;20173;-51
2022/11/12 03:21:42;;;;;;;16.13;8.40;;;6.90;99.90;;;;;;5093861;28;20239;-52
2022/11/12 03:24:07;;;;;;;16.30;9.43;;;6.90;99.90;;;;;;5094215;28;20165;-53
2022/11/12 03:26:33;;;;;;;12.90;8.75;;;6.90;99.90;;;;;;5093921;28;20533;-54
2022/11/12 03:28:58;;;;;;;11.07;7.65;;;6.80;99.90;;;;;;5093855;28;20180;-54
2022/11/12 03:31:24;;;;;;;12.68;8.13;;;6.90;99.90;;;;;;5093812;28;20200;-53
2022/11/12 03:33:50;;;;;;;11.55;8.30;;;6.90;99.90;;;;;;5093524;28;20161;-53
2022/11/12 03:36:15;;;;;;;15.63;8.70;;;6.90;99.90;;;;;;5093683;28;20681;-51
2022/11/12 03:38:41;;;;;;;12.27;8.82;;;6.80;99.90;;;;;;5093613;28;20166;-51
2022/11/12 03:41:06;;;;;;;13.85;9.30;;;6.90;99.90;;;;;;5093826;28;20333;-51
2022/11/12 03:43:32;;;;;;;13.00;8.55;;;6.90;99.90;;;;;;5093532;28;20165;-51
2022/11/12 03:45:57;;;;;;;14.50;9.07;;;6.90;99.90;;;;;;5093477;28;20173;-50
2022/11/12 03:48:23;;;;;;;12.15;8.38;;;6.80;99.90;;;;;;5092999;28;20252;-50
2022/11/12 03:50:48;;;;;;;17.52;9.13;;;6.80;99.90;;;;;;5093432;28;20172;-51
2022/11/12 03:53:14;;;;;;;13.80;8.77;;;6.90;99.90;;;;;;5092822;28;20176;-51
2022/11/12 03:55:40;;;;;;;12.30;8.88;;;6.90;99.90;;;;;;5093598;28;20157;-51
2022/11/12 03:58:06;;;;;;;19.17;9.20;;;6.80;99.90;;;;;;5093678;28;20243;-52
2022/11/12 04:00:31;;;;;;;13.63;9.05;;;6.80;99.90;;;;;;5093039;28;20291;-51
2022/11/12 04:02:57;;;;;;;14.35;9.85;;;6.80;99.90;;;;;;5093260;28;20205;-51
2022/11/12 04:08:37;;;;;;;15.25;8.80;;;6.80;99.90;;;;;;5093735;28;20172;-51
2022/11/12 04:11:13;;;;;;;16.25;9.35;;;6.70;99.90;;;;;;5093293;28;20256;-52
2022/11/12 04:13:40;;;;;;;13.55;9.73;;;6.80;99.90;;;;;;5093318;28;20164;-53
2022/11/12 04:21:55;;;;;;;12.82;9.13;;;6.70;99.90;;;;;;5093268;28;20570;-53
2022/11/12 04:27:17;;;;;;;15.70;8.50;;;6.70;99.90;;;;;;5092771;28;20176;-51
2022/11/12 04:32:30;;;;;;;13.68;8.18;;;6.60;99.90;;;;;;5092973;28;20212;-52
2022/11/12 04:34:56;;;;;;;14.57;8.80;;;6.60;99.90;;;;;;5092662;28;20157;-54
2022/11/12 04:37:24;;;;;;;14.68;8.85;;;6.60;99.90;;;;;;5092270;28;20222;-53
2022/11/12 04:39:51;;;;;;;12.32;8.90;;;6.50;99.90;;;;;;5092500;28;20157;-54
2022/11/12 04:45:02;;;;;;;12.65;8.68;;;6.60;99.90;;;;;;5092757;28;20210;-53
2022/11/12 04:47:31;;;;;;;13.98;9.75;;;6.60;99.90;;;;;;5092555;28;20169;-51
2022/11/12 04:49:57;;;;;;;15.85;9.43;;;6.60;99.90;;;;;;5092315;28;20166;-50
2022/11/12 04:52:24;;;;;;;11.52;8.10;;;6.50;99.90;;;;;;5092332;28;20242;-51
2022/11/12 04:54:50;;;;;;;13.57;8.70;;;6.60;99.90;;;;;;5092388;28;20169;-51
2022/11/12 04:57:15;;;;;;;17.45;8.73;;;6.60;99.90;;;;;;5092180;28;20589;-50
2022/11/12 04:59:41;;;;;;;11.25;8.05;;;6.60;99.90;;;;;;5091229;28;20236;-50
2022/11/12 05:02:06;;;;;;;12.93;9.15;;;6.60;99.90;;;;;;5092326;28;20209;-51
2022/11/12 05:04:32;;;;;;;13.85;8.38;;;6.50;99.90;;;;;;5092072;28;20211;-51
2022/11/12 05:06:58;;;;;;;15.07;8.57;;;6.60;99.90;;;;;;5092011;28;20172;-51
2022/11/12 05:09:26;;;;;;;12.27;8.52;;;6.40;99.90;;;;;;5091957;28;20173;-53
2022/11/12 05:11:54;;;;;;;11.07;8.40;;;6.50;99.90;;;;;;5073776;28;20541;-54
2022/11/12 05:14:20;;;;;;;13.15;8.05;;;6.40;99.90;;;;;;5092003;28;20165;-53
2022/11/12 05:16:46;;;;;;;10.80;7.78;;;6.40;99.90;;;;;;5091965;28;20185;-53
2022/11/12 05:19:12;;;;;;;11.23;7.97;;;6.50;99.90;;;;;;5091726;28;20583;-53
2022/11/12 05:24:21;;;;;;;12.00;8.10;;;6.50;99.90;;;;;;5091900;28;20584;-54
2022/11/12 05:26:47;;;;;;;17.00;8.30;;;6.30;99.90;;;;;;5091943;28;20237;-51
2022/11/12 05:29:12;;;;;;;13.07;8.70;;;6.40;99.90;;;;;;5091758;28;20624;-51
2022/11/12 05:31:38;;;;;;;14.23;9.18;;;6.40;99.90;;;;;;5092098;28;20632;-51
2022/11/12 05:34:03;;;;;;;14.00;8.52;;;6.40;99.90;;;;;;5091788;28;20632;-51
2022/11/12 05:36:29;;;;;;;10.55;7.82;;;4.30;99.90;;;;;;5091675;28;20549;-51
2022/11/12 05:38:55;;;;;;;11.45;8.45;;;6.30;99.90;;;;;;5091721;28;20521;-51
2022/11/12 05:41:20;;;;;;;14.68;8.57;;;6.30;99.90;;;;;;5091659;28;20190;-51
2022/11/12 05:43:46;;;;;;;13.30;8.45;;;6.30;99.90;;;;;;5091639;28;20177;-51
2022/11/12 05:46:11;;;;;;;13.43;8.05;;;6.20;99.90;;;;;;5091632;28;20176;-53
2022/11/12 05:48:37;;;;;;;12.25;8.20;;;6.20;99.90;;;;;;5091974;28;20175;-51
2022/11/12 05:51:03;;;;;;;12.82;8.50;;;6.20;99.90;;;;;;5091644;28;20200;-51
2022/11/12 05:53:28;;;;;;;10.65;7.65;;;6.30;99.90;;;;;;5091608;28;20174;-51
2022/11/12 05:55:59;;;;;;;10.93;7.78;;;6.30;99.90;;;;;;5091551;28;20193;-51
2022/11/12 05:58:24;;;;;;;12.35;8.30;;;6.30;99.90;;;;;;5091288;28;20169;-51
2022/11/12 06:00:50;;;;;;;12.30;8.40;;;6.30;99.90;;;;;;5091455;28;20690;-49
2022/11/12 06:03:15;;;;;;;16.13;8.70;;;6.40;99.90;;;;;;5091531;28;20589;-50
2022/11/12 06:05:41;;;;;;;12.57;9.27;;;6.30;99.90;;;;;;5091719;28;20249;-46
2022/11/12 06:08:07;;;;;;;11.55;8.43;;;6.30;99.90;;;;;;5091945;28;20177;-50
2022/11/12 06:10:32;;;;;;;12.50;7.82;;;6.30;99.90;;;;;;5092285;28;20162;-51
2022/11/12 06:12:58;;;;;;;11.15;8.23;;;6.20;99.90;;;;;;5095286;28;20165;-50
2022/11/12 06:15:25;;;;;;;12.52;8.15;;;6.10;99.90;;;;;;5095235;28;20189;-51
2022/11/12 06:17:52;;;;;;;15.18;8.38;;;6.10;99.90;;;;;;5095435;28;20162;-50
2022/11/12 06:20:18;;;;;;;14.10;8.98;;;6.30;99.90;;;;;;5095025;28;20165;-51
2022/11/12 06:22:43;;;;;;;12.38;9.00;;;6.20;99.90;;;;;;5094986;28;20291;-51
2022/11/12 06:25:09;;;;;;;12.55;8.52;;;6.10;99.90;;;;;;5095419;28;20257;-50
2022/11/12 06:27:35;;;;;;;12.63;8.32;;;6.10;99.90;;;;;;5095162;28;20180;-51
2022/11/12 06:30:00;;;;;;;13.88;8.55;;;6.10;99.90;;;;;;5094963;28;20169;-50
2022/11/12 06:32:26;;;;;;;11.40;8.82;;;6.10;99.90;;;;;;5094955;28;20162;-51
2022/11/12 06:34:52;;;;;;;12.80;8.80;;;6.20;99.90;;;;;;5094872;28;20238;-52
2022/11/12 06:37:18;;;;;;;14.13;9.05;;;6.10;99.90;;;;;;5095023;28;20175;-52
2022/11/12 06:39:44;;;;;;;17.38;9.70;;;6.10;99.90;;;;;;5094752;28;20180;-50
2022/11/12 06:42:09;;;;;;;11.85;8.02;;;6.10;99.90;;;;;;5094736;28;20205;-50
2022/11/12 06:44:35;;;;;;;12.40;8.45;;;6.10;99.90;;;;;;5095179;28;20249;-51
2022/11/12 06:47:01;;;;;;;14.70;9.02;;;6.00;99.90;;;;;;5094573;28;20622;-50
2022/11/12 06:49:26;;;;;;;13.38;8.77;;;6.10;99.90;;;;;;5094602;28;20173;-51
2022/11/12 06:51:52;;;;;;;16.63;10.27;;;6.10;99.90;;;;;;5094523;28;20165;-51
2022/11/12 06:54:18;;;;;;;16.67;10.90;;;6.10;99.90;;;;;;5094485;28;20172;-52
2022/11/12 06:56:43;;;;;;;15.15;9.23;;;6.20;99.90;;;;;;5094496;28;20252;-52
2022/11/12 06:59:09;;;;;;;19.20;10.80;;;6.10;99.90;;;;;;5076351;28;20286;-51
2022/11/12 07:01:35;;;;;;;27.30;14.70;;;6.20;99.90;;;;;;5094403;28;20209;-53
2022/11/12 07:04:00;;;;;;;19.75;11.75;;;6.20;99.90;;;;;;5094287;28;20169;-52
2022/11/12 07:06:26;;;;;;;20.42;12.25;;;6.20;99.90;;;;;;5094304;28;20162;-51
2022/11/12 07:08:52;;;;;;;17.73;10.25;;;6.10;99.90;;;;;;5093812;28;20161;-51
2022/11/12 07:11:19;;;;;;;17.52;10.27;;;6.20;99.90;;;;;;5093234;28;20163;-52
2022/11/12 07:13:45;;;;;;;16.17;9.93;;;6.20;99.90;;;;;;5093939;28;20177;-51
2022/11/12 07:16:17;;;;;;;14.18;9.60;;;6.20;99.90;;;;;;5093786;28;20169;-51
2022/11/12 07:18:44;;;;;;;15.52;9.48;;;6.20;99.90;;;;;;5094028;28;20208;-50
2022/11/12 07:21:11;;;;;;;15.45;9.45;;;6.10;99.90;;;;;;5093828;28;20224;-53
2022/11/12 07:23:37;;;;;;;13.15;9.10;;;6.20;99.90;;;;;;5093407;28;20252;-51
2022/11/12 07:26:16;;;;;;;15.40;9.70;;;6.20;99.90;;;;;;5093872;28;20676;-53
2022/11/12 07:28:43;;;;;;;16.02;9.18;;;6.30;99.90;;;;;;5093572;28;20161;-52
2022/11/12 07:31:11;;;;;;;13.25;9.40;;;6.30;99.90;;;;;;5093621;28;20531;-53
2022/11/12 07:33:37;;;;;;;13.35;8.18;;;6.30;99.90;;;;;;5093667;28;20158;-54
2022/11/12 07:36:06;;;;;;;11.57;8.35;;;6.30;99.90;;;;;;5093390;28;20162;-50
2022/11/12 07:38:33;;;;;;;13.60;9.18;;;6.40;99.90;;;;;;5093099;28;20192;-55
2022/11/12 07:41:05;;;;;;;14.80;8.73;;;6.50;99.90;;;;;;5092818;28;20763;-55
2022/11/12 07:43:32;;;;;;;15.90;9.88;;;6.40;99.90;;;;;;5093520;28;20208;-55
2022/11/12 07:45:59;;;;;;;16.30;9.15;;;6.50;99.90;;;;;;5092660;28;20248;-54
2022/11/12 07:48:26;;;;;;;12.02;8.07;;;6.60;99.90;;;;;;5093252;28;20165;-55
2022/11/12 07:50:51;;;;;;;11.25;8.43;;;6.60;99.90;;;;;;5093095;28;20230;-54
2022/11/12 07:53:17;;;;;;;11.48;8.43;;;6.70;99.90;;;;;;5093387;28;20620;-50
2022/11/12 07:55:51;;;;;;;14.98;8.45;;;6.70;99.90;;;;;;5092999;28;20166;-50
2022/11/12 07:58:16;;;;;;;13.52;8.77;;;6.70;99.90;;;;;;5092556;28;20201;-51
2022/11/12 08:00:42;;;;;;;13.07;8.55;;;6.80;99.90;;;;;;5093199;28;20200;-50
2022/11/12 08:03:07;;;;;;;12.30;8.80;;;7.00;99.90;;;;;;5093384;28;20201;-51
2022/11/12 08:05:33;;;;;;;11.88;7.78;;;7.00;99.90;;;;;;5093106;28;20169;-51
2022/11/12 08:07:58;;;;;;;13.73;8.23;;;7.00;99.90;;;;;;5093178;28;20847;-51
2022/11/12 08:10:24;;;;;;;10.93;7.32;;;7.10;99.90;;;;;;5074792;28;20180;-51
2022/11/12 08:12:50;;;;;;;13.25;8.27;;;7.10;99.90;;;;;;5092694;28;20185;-51
2022/11/12 08:15:15;;;;;;;10.70;8.30;;;7.20;99.90;;;;;;5092924;28;20169;-52
2022/11/12 08:17:41;;;;;;;9.18;7.78;;;7.40;99.90;;;;;;5092708;28;20689;-52
2022/11/12 08:20:07;;;;;;;9.00;7.32;;;7.30;99.90;;;;;;5092684;28;20177;-54
2022/11/12 08:22:32;;;;;;;9.68;7.85;;;7.60;99.90;;;;;;5074264;28;20209;-54
2022/11/12 08:24:58;;;;;;;10.13;7.43;;;7.60;99.90;;;;;;5092771;28;20170;-52
2022/11/12 08:27:23;;;;;;;10.18;6.97;;;7.70;99.90;;;;;;5092521;28;20290;-52
2022/11/12 08:29:49;;;;;;;9.73;7.47;;;7.70;99.90;;;;;;5092719;28;20174;-53
2022/11/12 08:32:14;;;;;;;11.98;7.10;;;7.90;99.90;;;;;;5092729;28;20178;-53
2022/11/12 08:34:42;;;;;;;7.80;6.22;;;7.90;99.90;;;;;;5092664;28;20179;-50
2022/11/12 08:37:08;;;;;;;9.02;6.97;;;8.00;99.90;;;;;;5093119;28;20169;-55
2022/11/12 08:39:33;;;;;;;7.25;6.13;;;8.00;99.90;;;;;;5092478;28;20176;-52
2022/11/12 08:41:59;;;;;;;8.20;6.43;;;8.00;99.90;;;;;;5092587;28;20209;-51
2022/11/12 08:44:24;;;;;;;12.50;6.65;;;8.20;99.90;;;;;;5092384;28;20657;-50
2022/11/12 08:46:50;;;;;;;7.05;5.75;;;8.20;99.90;;;;;;5092209;28;20173;-51
2022/11/12 08:49:15;;;;;;;8.15;6.60;;;8.30;99.90;;;;;;5092112;28;20176;-51
2022/11/12 08:51:41;;;;;;;10.18;6.70;;;8.30;99.90;;;;;;5092295;28;20172;-50
2022/11/12 08:54:06;;;;;;;9.45;7.03;;;8.40;99.90;;;;;;5092600;28;20176;-51
2022/11/12 08:56:32;;;;;;;8.57;6.05;;;8.50;99.90;;;;;;5074159;28;20214;-50
2022/11/12 08:58:58;;;;;;;7.60;6.65;;;8.50;99.90;;;;;;5091947;28;20248;-51
2022/11/12 09:01:24;;;;;;;7.80;6.15;;;8.50;99.90;;;;;;5091931;28;20210;-51
2022/11/12 09:03:51;;;;;;;9.10;6.20;;;8.60;99.90;;;;;;5092044;28;20656;-50
2022/11/12 09:06:16;;;;;;;8.38;5.97;;;8.60;99.90;;;;;;5091861;28;20161;-51
2022/11/12 09:08:42;;;;;;;9.55;6.50;;;8.50;99.90;;;;;;5091887;28;20166;-51
2022/11/12 09:11:07;;;;;;;7.88;6.13;;;8.50;99.90;;;;;;5092169;28;20173;-51
2022/11/12 09:13:34;;;;;;;7.93;6.25;;;8.70;99.90;;;;;;5091731;28;20215;-52
2022/11/12 09:16:01;;;;;;;8.73;6.68;;;8.80;99.90;;;;;;5091807;28;20194;-51
2022/11/12 09:18:27;;;;;;;8.13;6.60;;;8.90;99.90;;;;;;5091851;28;20632;-51
2022/11/12 09:20:53;;;;;;;10.18;7.10;;;9.10;99.90;;;;;;5091866;28;20171;-51
2022/11/12 09:23:18;;;;;;;10.23;7.25;;;9.20;99.90;;;;;;5091883;28;20258;-52
2022/11/12 09:25:45;;;;;;;10.77;8.23;;;9.30;99.90;;;;;;5091478;28;20238;-54
2022/11/12 09:28:16;;;;;;;9.32;6.40;;;9.40;99.90;;;;;;5091217;28;20184;-51
2022/11/12 09:30:47;;;;;;;11.68;6.43;;;9.30;99.90;;;;;;5091639;28;20185;-51
2022/11/12 09:33:14;;;;;;;10.15;6.28;;;9.30;99.90;;;;;;5092267;28;20468;-51
2022/11/12 09:35:39;;;;;;;7.78;6.50;;;9.30;99.90;;;;;;5091305;28;20169;-53
2022/11/12 09:38:05;;;;;;;7.95;6.18;;;9.40;99.90;;;;;;5092253;28;20256;-52
2022/11/12 09:40:51;;;;;;;7.38;6.43;;;9.50;99.90;;;;;;5091773;28;20173;-56
2022/11/12 09:43:24;;;;;;;6.15;5.43;;;9.50;99.90;;;;;;5091591;28;20201;-55
2022/11/12 09:45:52;;;;;;;6.80;5.82;;;9.50;99.90;;;;;;5093062;28;20522;-51
2022/11/12 09:48:24;;;;;;;7.78;5.75;;;9.50;99.90;;;;;;5095703;28;20173;-55
2022/11/12 09:50:56;;;;;;;10.48;6.57;;;9.70;99.90;;;;;;5095721;28;20197;-56
2022/11/12 09:53:36;;;;;;;10.05;6.03;;;9.70;99.90;;;;;;5095470;28;20244;-55
2022/11/12 09:56:06;;;;;;;8.30;6.22;;;9.80;99.90;;;;;;5095298;28;20632;-56
2022/11/12 09:58:31;;;;;;;7.47;5.57;;;9.90;99.90;;;;;;5095632;28;20289;-57
2022/11/12 10:01:06;;;;;;;7.00;5.40;;;9.90;99.90;;;;;;5095267;28;20212;-57
2022/11/12 10:03:41;;;;;;;7.78;5.82;;;10.00;99.90;;;;;;5095463;28;20179;-57
2022/11/12 10:06:15;;;;;;;7.68;5.68;;;10.00;99.90;;;;;;5095275;28;20161;-56
2022/11/12 10:09:13;;;;;;;8.27;5.68;;;10.00;99.90;;;;;;5095370;28;20181;-55
2022/11/12 10:12:31;;;;;;;7.25;5.53;;;10.00;99.90;;;;;;5094840;28;20687;-53
2022/11/12 10:18:52;;;;;;;8.07;6.47;;;10.30;99.90;;;;;;5095155;28;20176;-55
2022/11/12 10:21:33;;;;;;;7.82;5.72;;;10.40;99.90;;;;;;5038748;28;20201;-55
2022/11/12 10:23:59;;;;;;;8.77;6.47;;;10.50;99.90;;;;;;5076933;28;20794;-56
2022/11/12 10:26:27;;;;;;;8.55;6.20;;;10.60;99.90;;;;;;5094428;28;20153;-54
2022/11/12 10:29:21;;;;;;;21.75;14.77;;;10.70;99.90;;;;;;5094902;28;20169;-56
2022/11/12 10:31:46;;;;;;;13.10;8.88;;;10.80;99.90;;;;;;5094966;28;20185;-56
2022/11/12 10:34:12;;;;;;;23.05;12.02;;;10.90;99.90;;;;;;5094746;28;20496;-56
2022/11/12 10:36:43;;;;;;;33.58;19.73;;;11.00;99.90;;;;;;5076859;28;20303;-55
2022/11/12 10:39:08;;;;;;;22.80;14.77;;;11.10;99.90;;;;;;5095066;28;20162;-57
2022/11/12 10:41:34;;;;;;;23.95;15.13;;;11.20;99.90;;;;;;5094801;28;20197;-55
2022/11/12 10:44:02;;;;;;;15.57;10.98;;;11.10;99.90;;;;;;5094395;28;20168;-54
2022/11/12 10:46:34;;;;;;;34.08;24.35;;;11.20;99.90;;;;;;5094880;28;20204;-56
2022/11/12 10:49:04;;;;;;;7.60;6.40;;;11.20;99.90;;;;;;5094526;28;20165;-56
2022/11/12 10:51:35;;;;;;;9.88;5.45;;;11.30;99.90;;;;;;5094250;28;20165;-55
2022/11/12 10:54:35;;;;;;;12.35;8.55;;;11.30;99.90;;;;;;5094363;28;20574;-54
2022/11/12 10:57:27;;;;;;;7.22;5.68;;;11.30;99.90;;;;;;5085690;28;20174;-56
2022/11/12 11:00:11;;;;;;;7.53;5.85;;;11.40;99.90;;;;;;5089167;28;20236;-55
2022/11/12 11:02:37;;;;;;;21.20;15.32;;;11.50;99.90;;;;;;5094649;28;20201;-55
2022/11/12 11:06:07;;;;;;;8.30;6.05;;;11.50;99.90;;;;;;5075972;28;20169;-54
2022/11/12 11:08:47;;;;;;;52.30;24.25;;;8.90;99.90;;;;;;4992115;28;20184;-56
2022/11/12 11:11:18;;;;;;;249.50;118.50;;;11.60;99.90;;;;;;5094132;28;20256;-55
2022/11/12 11:13:45;;;;;;;51.10;25.73;;;11.60;99.90;;;;;;5093946;28;20172;-55
2022/11/12 11:16:16;;;;;;;240.38;113.78;;;11.70;99.90;;;;;;5093879;28;20165;-56
2022/11/12 11:18:48;;;;;;;26.08;15.10;;;11.70;99.90;;;;;;5056623;28;20173;-54
2022/11/12 11:21:47;;;;;;;15.43;9.85;;;11.80;99.90;;;;;;5075065;28;20189;-56
2022/11/12 11:24:51;;;;;;;12.52;9.00;;;11.80;99.90;;;;;;5073416;28;20189;-50
2022/11/12 11:27:54;;;;;;;34.17;23.42;;;11.80;99.90;;;;;;5073265;28;20653;-51
2022/11/12 11:30:21;;;;;;;7.78;6.47;;;12.00;99.90;;;;;;5073899;28;20169;-51
2022/11/12 11:33:18;;;;;;;11.43;7.95;;;12.10;99.90;;;;;;5093693;28;20253;-51
2022/11/12 11:36:05;;;;;;;15.93;10.63;;;12.10;99.90;;;;;;5093339;28;20219;-51
2022/11/12 11:38:40;;;;;;;6.95;5.45;;;12.20;99.90;;;;;;5093460;28;20291;-51
2022/11/12 11:41:29;;;;;;;10.63;8.45;;;12.30;99.90;;;;;;5078880;28;20166;-51
2022/11/12 11:44:28;;;;;;;7.93;6.90;;;12.30;99.90;;;;;;5073506;28;20202;-53
2022/11/12 11:47:06;;;;;;;7.32;5.60;;;12.40;99.90;;;;;;5073142;28;20633;-51
2022/11/12 11:49:53;;;;;;;6.57;5.43;;;12.40;99.90;;;;;;5073131;28;20172;-51
2022/11/12 11:52:44;;;;;;;9.30;6.43;;;12.40;99.90;;;;;;5084418;28;20648;-51
2022/11/12 11:55:48;;;;;;;7.78;5.95;;;12.30;99.90;;;;;;5093510;28;20273;-53
2022/11/12 11:58:17;;;;;;;10.15;8.63;;;12.40;99.90;;;;;;5092698;28;20172;-55
2022/11/12 12:01:24;;;;;;;7.22;5.07;;;12.90;99.90;;;;;;5092954;28;20173;-51
2022/11/12 12:04:22;;;;;;;6.57;4.63;;;12.40;99.90;;;;;;4991479;28;20188;-53
2022/11/12 12:07:24;;;;;;;8.52;5.40;;;12.40;99.90;;;;;;4982988;28;20668;-51
2022/11/12 12:10:08;;;;;;;7.57;5.68;;;12.40;99.90;;;;;;5050757;28;20181;-53
2022/11/12 12:12:41;;;;;;;5.93;5.25;;;12.40;99.90;;;;;;5077887;28;20239;-51
2022/11/12 12:15:37;;;;;;;6.80;6.10;;;12.50;99.90;;;;;;5090399;28;20169;-52
2022/11/12 12:18:19;;;;;;;7.20;4.88;;;12.50;99.90;;;;;;5092238;28;20164;-53
2022/11/12 12:20:57;;;;;;;6.40;5.18;;;12.50;99.90;;;;;;5092703;28;20667;-52
2022/11/12 12:23:42;;;;;;;5.13;4.60;;;12.50;99.90;;;;;;5092782;28;20308;-51
2022/11/12 12:26:18;;;;;;;7.68;4.75;;;12.50;99.90;;;;;;5092500;28;20244;-51
2022/11/12 12:28:57;;;;;;;5.60;4.75;;;12.50;99.90;;;;;;5092174;28;20256;-52
2022/11/12 12:31:31;;;;;;;10.05;5.55;;;12.50;99.90;;;;;;5092475;28;20169;-52
2022/11/12 12:34:13;;;;;;;7.75;6.82;;;12.50;99.90;;;;;;5092160;28;20177;-54
2022/11/12 12:36:41;;;;;;;10.23;6.82;;;12.50;99.90;;;;;;5092343;28;20168;-53
2022/11/12 12:39:18;;;;;;;15.05;11.32;;;12.50;99.90;;;;;;5092539;28;20176;-56
2022/11/12 12:42:04;;;;;;;6.45;4.90;;;12.50;99.90;;;;;;5092325;28;20672;-52
2022/11/12 12:45:00;;;;;;;10.02;8.10;;;12.60;99.90;;;;;;5086412;28;20238;-53
2022/11/12 12:47:27;;;;;;;14.57;10.02;;;12.60;99.90;;;;;;5074261;28;20189;-53
2022/11/12 12:49:53;;;;;;;8.57;7.70;;;12.60;99.90;;;;;;5071288;28;20166;-55
2022/11/12 12:52:19;;;;;;;6.75;4.47;;;12.60;99.90;;;;;;5079833;28;20173;-57
2022/11/12 12:54:50;;;;;;;6.85;5.25;;;12.70;99.90;;;;;;5089620;28;20173;-52
2022/11/12 12:57:31;;;;;;;10.43;6.53;;;12.60;99.90;;;;;;5090723;28;20165;-51
2022/11/12 13:00:30;;;;;;;12.88;11.57;;;12.60;99.90;;;;;;5070946;28;20205;-52
2022/11/12 13:02:56;;;;;;;6.03;5.13;;;12.60;99.90;;;;;;5072019;28;20212;-53
2022/11/12 13:05:25;;;;;;;5.22;4.68;;;12.60;99.90;;;;;;5072559;28;20174;-52
2022/11/12 13:07:51;;;;;;;5.88;4.78;;;12.70;99.90;;;;;;5072275;28;20239;-53
2022/11/12 13:10:35;;;;;;;7.32;4.65;;;12.70;99.90;;;;;;5071628;28;20249;-52
2022/11/12 13:13:05;;;;;;;6.70;4.35;;;12.60;99.90;;;;;;5071772;28;20656;-52
2022/11/12 13:16:00;;;;;;;4.78;4.28;;;12.60;99.90;;;;;;5072593;28;20174;-56
2022/11/12 13:18:41;;;;;;;6.53;4.78;;;12.60;99.90;;;;;;5050797;28;20657;-51
2022/11/12 13:21:18;;;;;;;7.47;5.43;;;12.60;99.90;;;;;;5077424;28;20173;-53
2022/11/12 13:24:06;;;;;;;5.53;4.80;;;12.60;99.90;;;;;;5079011;28;20177;-53
2022/11/12 13:26:52;;;;;;;8.18;4.90;;;12.60;99.90;;;;;;5080067;28;20253;-52